sensor_id;sensor_type;location;lat;lon;timestamp;pressure;altitude;pressure_sealevel;temperature;humidity
6034;BME280;3045;43.226;27.858;2023-12-29T00:00:50;80250.78;;;5.22;100.00
6034;BME280;3045;43.226;27.858;2023-12-29T00:03:17;81428.03;;;5.39;100.00
6034;BME280;3045;43.226;27.858;2023-12-29T00:05:44;74510.56;;;5.41;100.00
6034;BME280;3045;43.226;27.858;2023-12-29T00:08:12;73652.03;;;5.50;100.00
6034;BME280;3045;43.226;27.858;2023-12-29T00:10:39;76626.53;;;5.38;100.00
6034;BME280;3045;43.226;27.858;2023-12-29T00:13:06;80155.03;;;5.56;100.00
6034;BME280;3045;43.226;27.858;2023-12-29T00:15:33;91921.28;;;5.44;100.00
6034;BME280;3045;43.226;27.858;2023-12-29T00:18:01;100997.63;;;5.35;100.00
6034;BME280;3045;43.226;27.858;2023-12-29T00:20:28;101453.56;;;5.19;100.00
6034;BME280;3045;43.226;27.858;2023-12-29T00:22:55;99258.66;;;5.19;100.00
6034;BME280;3045;43.226;27.858;2023-12-29T00:25:24;99415.69;;;4.89;100.00
6034;BME280;3045;43.226;27.858;2023-12-29T00:27:51;95653.63;;;4.88;100.00
6034;BME280;3045;43.226;27.858;2023-12-29T00:30:18;94660.53;;;5.00;100.00
6034;BME280;3045;43.226;27.858;2023-12-29T00:32:46;88501.81;;;5.11;100.00
6034;BME280;3045;43.226;27.858;2023-12-29T00:35:14;75940.81;;;5.37;100.00
6034;BME280;3045;43.226;27.858;2023-12-29T00:37:41;74395.63;;;5.54;100.00
6034;BME280;3045;43.226;27.858;2023-12-29T00:40:09;83909.97;;;5.02;100.00
6034;BME280;3045;43.226;27.858;2023-12-29T00:42:36;90108.56;;;5.45;100.00
6034;BME280;3045;43.226;27.858;2023-12-29T00:45:04;93644.38;;;5.32;100.00
6034;BME280;3045;43.226;27.858;2023-12-29T00:47:31;95343.06;;;5.32;100.00
6034;BME280;3045;43.226;27.858;2023-12-29T00:49:59;97853.72;;;5.27;100.00
6034;BME280;3045;43.226;27.858;2023-12-29T00:52:27;96530.47;;;5.16;100.00
6034;BME280;3045;43.226;27.858;2023-12-29T00:54:54;95864.94;;;5.02;100.00
6034;BME280;3045;43.226;27.858;2023-12-29T00:57:21;91669.88;;;4.99;100.00
6034;BME280;3045;43.226;27.858;2023-12-29T00:59:48;81639.16;;;4.92;100.00
6034;BME280;3045;43.226;27.858;2023-12-29T01:02:15;70774.44;;;5.47;100.00
6034;BME280;3045;43.226;27.858;2023-12-29T01:04:42;65669.13;;;5.82;100.00
6034;BME280;3045;43.226;27.858;2023-12-29T01:07:10;64434.31;;;6.19;100.00
6034;BME280;3045;43.226;27.858;2023-12-29T01:09:41;68984.63;;;6.61;100.00
6034;BME280;3045;43.226;27.858;2023-12-29T01:12:08;76740.84;;;7.02;100.00
6034;BME280;3045;43.226;27.858;2023-12-29T01:14:35;86270.03;;;7.37;100.00
6034;BME280;3045;43.226;27.858;2023-12-29T01:17:03;98874.91;;;7.69;100.00
6034;BME280;3045;43.226;27.858;2023-12-29T01:19:30;110300.66;;;7.96;100.00
6034;BME280;3045;43.226;27.858;2023-12-29T01:21:57;121847.84;;;8.16;100.00
6034;BME280;3045;43.226;27.858;2023-12-29T01:24:24;136092.09;;;8.35;100.00
6034;BME280;3045;43.226;27.858;2023-12-29T01:26:53;145962.25;;;8.40;100.00
6034;BME280;3045;43.226;27.858;2023-12-29T01:29:20;148082.94;;;8.51;100.00
6034;BME280;3045;43.226;27.858;2023-12-29T01:31:47;148156.47;;;8.40;100.00
6034;BME280;3045;43.226;27.858;2023-12-29T01:34:14;148059.31;;;8.01;100.00
6034;BME280;3045;43.226;27.858;2023-12-29T01:36:41;147972.28;;;7.66;100.00
6034;BME280;3045;43.226;27.858;2023-12-29T01:39:08;147890.34;;;7.33;100.00
6034;BME280;3045;43.226;27.858;2023-12-29T01:41:35;147804.63;;;6.99;100.00
6034;BME280;3045;43.226;27.858;2023-12-29T01:44:27;147752.97;;;6.78;100.00
6034;BME280;3045;43.226;27.858;2023-12-29T01:46:57;147781.94;;;6.90;100.00
6034;BME280;3045;43.226;27.858;2023-12-29T01:49:25;147770.59;;;6.85;100.00
6034;BME280;3045;43.226;27.858;2023-12-29T01:51:54;147212.84;;;6.96;100.00
6034;BME280;3045;43.226;27.858;2023-12-29T01:54:23;140733.06;;;7.01;100.00
6034;BME280;3045;43.226;27.858;2023-12-29T01:56:52;134163.69;;;7.00;100.00
6034;BME280;3045;43.226;27.858;2023-12-29T01:59:21;129269.22;;;7.09;100.00
6034;BME280;3045;43.226;27.858;2023-12-29T02:01:50;129492.81;;;7.15;100.00
6034;BME280;3045;43.226;27.858;2023-12-29T02:04:17;131323.03;;;7.14;100.00
6034;BME280;3045;43.226;27.858;2023-12-29T02:06:44;135410.69;;;7.15;100.00
6034;BME280;3045;43.226;27.858;2023-12-29T02:09:12;138391.03;;;7.11;100.00
6034;BME280;3045;43.226;27.858;2023-12-29T02:11:39;137293.88;;;6.95;100.00
6034;BME280;3045;43.226;27.858;2023-12-29T02:14:06;135076.44;;;6.91;100.00
6034;BME280;3045;43.226;27.858;2023-12-29T02:16:38;131825.88;;;6.96;100.00
6034;BME280;3045;43.226;27.858;2023-12-29T02:19:20;131660.06;;;6.86;100.00
6034;BME280;3045;43.226;27.858;2023-12-29T02:21:51;132039.00;;;6.99;100.00
6034;BME280;3045;43.226;27.858;2023-12-29T02:24:18;132050.50;;;6.91;100.00
6034;BME280;3045;43.226;27.858;2023-12-29T02:26:51;128767.88;;;6.88;100.00
6034;BME280;3045;43.226;27.858;2023-12-29T02:29:21;130043.72;;;6.85;100.00
6034;BME280;3045;43.226;27.858;2023-12-29T02:31:52;126146.72;;;6.64;100.00
6034;BME280;3045;43.226;27.858;2023-12-29T02:34:22;121859.44;;;6.69;100.00
6034;BME280;3045;43.226;27.858;2023-12-29T02:36:50;116929.44;;;6.66;100.00
6034;BME280;3045;43.226;27.858;2023-12-29T02:39:18;119340.69;;;6.62;100.00
6034;BME280;3045;43.226;27.858;2023-12-29T02:41:46;123517.75;;;6.59;100.00
6034;BME280;3045;43.226;27.858;2023-12-29T02:44:14;133924.66;;;6.48;100.00
6034;BME280;3045;43.226;27.858;2023-12-29T02:46:41;134101.50;;;6.38;100.00
6034;BME280;3045;43.226;27.858;2023-12-29T02:49:08;127391.19;;;6.22;100.00
6034;BME280;3045;43.226;27.858;2023-12-29T02:51:38;127217.22;;;6.36;100.00
6034;BME280;3045;43.226;27.858;2023-12-29T02:54:05;128716.59;;;6.29;100.00
6034;BME280;3045;43.226;27.858;2023-12-29T02:56:33;131768.81;;;5.93;100.00
6034;BME280;3045;43.226;27.858;2023-12-29T02:59:02;133459.91;;;6.24;100.00
6034;BME280;3045;43.226;27.858;2023-12-29T03:01:29;133341.16;;;6.16;100.00
6034;BME280;3045;43.226;27.858;2023-12-29T03:03:56;127297.16;;;5.96;100.00
6034;BME280;3045;43.226;27.858;2023-12-29T03:06:23;122527.56;;;6.00;100.00
6034;BME280;3045;43.226;27.858;2023-12-29T03:08:50;120417.03;;;5.78;100.00
6034;BME280;3045;43.226;27.858;2023-12-29T03:11:18;116049.38;;;5.76;100.00
6034;BME280;3045;43.226;27.858;2023-12-29T03:13:45;113941.22;;;6.00;100.00
6034;BME280;3045;43.226;27.858;2023-12-29T03:16:13;114108.78;;;6.01;100.00
6034;BME280;3045;43.226;27.858;2023-12-29T03:18:40;114457.78;;;5.95;100.00
6034;BME280;3045;43.226;27.858;2023-12-29T03:21:07;108977.22;;;5.81;100.00
6034;BME280;3045;43.226;27.858;2023-12-29T03:23:34;106080.34;;;5.91;100.00
6034;BME280;3045;43.226;27.858;2023-12-29T03:26:01;104586.09;;;5.73;100.00
6034;BME280;3045;43.226;27.858;2023-12-29T03:28:29;95148.38;;;5.63;100.00
6034;BME280;3045;43.226;27.858;2023-12-29T03:30:56;94778.59;;;5.69;100.00
6034;BME280;3045;43.226;27.858;2023-12-29T03:33:24;96909.75;;;5.65;100.00
6034;BME280;3045;43.226;27.858;2023-12-29T03:35:51;94877.53;;;5.39;100.00
6034;BME280;3045;43.226;27.858;2023-12-29T03:38:18;97629.53;;;5.27;100.00
6034;BME280;3045;43.226;27.858;2023-12-29T03:40:45;101795.75;;;5.09;100.00
6034;BME280;3045;43.226;27.858;2023-12-29T03:43:12;104451.34;;;5.20;100.00
6034;BME280;3045;43.226;27.858;2023-12-29T03:45:40;107722.78;;;5.23;100.00
6034;BME280;3045;43.226;27.858;2023-12-29T03:48:07;107259.09;;;5.20;100.00
6034;BME280;3045;43.226;27.858;2023-12-29T03:50:36;110405.84;;;4.23;100.00
6034;BME280;3045;43.226;27.858;2023-12-29T03:53:04;104417.59;;;4.55;100.00
6034;BME280;3045;43.226;27.858;2023-12-29T03:55:31;104696.84;;;4.60;100.00
6034;BME280;3045;43.226;27.858;2023-12-29T03:57:58;105289.28;;;4.76;100.00
6034;BME280;3045;43.226;27.858;2023-12-29T04:00:27;104791.31;;;4.70;100.00
6034;BME280;3045;43.226;27.858;2023-12-29T04:02:54;101513.16;;;4.55;100.00
6034;BME280;3045;43.226;27.858;2023-12-29T04:05:21;99755.19;;;4.73;100.00
6034;BME280;3045;43.226;27.858;2023-12-29T04:07:50;100513.97;;;4.61;100.00
6034;BME280;3045;43.226;27.858;2023-12-29T04:10:17;98625.44;;;4.58;100.00
6034;BME280;3045;43.226;27.858;2023-12-29T04:12:44;96441.53;;;4.52;100.00
6034;BME280;3045;43.226;27.858;2023-12-29T04:15:11;94978.34;;;4.53;100.00
6034;BME280;3045;43.226;27.858;2023-12-29T04:17:38;95546.59;;;4.62;100.00
6034;BME280;3045;43.226;27.858;2023-12-29T04:20:06;96769.13;;;4.44;100.00
6034;BME280;3045;43.226;27.858;2023-12-29T04:22:33;98863.06;;;4.51;100.00
6034;BME280;3045;43.226;27.858;2023-12-29T04:25:02;101176.13;;;4.34;100.00
6034;BME280;3045;43.226;27.858;2023-12-29T04:27:29;99127.75;;;4.38;100.00
6034;BME280;3045;43.226;27.858;2023-12-29T04:29:56;98928.44;;;4.36;100.00
6034;BME280;3045;43.226;27.858;2023-12-29T04:32:23;96268.72;;;4.29;100.00
6034;BME280;3045;43.226;27.858;2023-12-29T04:34:50;94021.16;;;4.27;100.00
6034;BME280;3045;43.226;27.858;2023-12-29T04:37:17;91191.06;;;4.20;100.00
6034;BME280;3045;43.226;27.858;2023-12-29T04:39:44;88136.59;;;4.17;100.00
6034;BME280;3045;43.226;27.858;2023-12-29T04:42:13;88893.97;;;4.18;100.00
6034;BME280;3045;43.226;27.858;2023-12-29T04:44:40;89471.91;;;4.21;100.00
6034;BME280;3045;43.226;27.858;2023-12-29T04:47:07;91363.69;;;4.26;100.00
6034;BME280;3045;43.226;27.858;2023-12-29T04:49:34;94405.09;;;4.24;100.00
6034;BME280;3045;43.226;27.858;2023-12-29T04:52:02;97172.63;;;4.17;100.00
6034;BME280;3045;43.226;27.858;2023-12-29T04:54:29;97289.50;;;4.20;100.00
6034;BME280;3045;43.226;27.858;2023-12-29T04:56:56;98057.66;;;4.14;100.00
6034;BME280;3045;43.226;27.858;2023-12-29T04:59:24;96992.75;;;3.96;100.00
6034;BME280;3045;43.226;27.858;2023-12-29T05:01:51;98791.06;;;3.96;100.00
6034;BME280;3045;43.226;27.858;2023-12-29T05:04:18;98118.50;;;3.59;100.00
6034;BME280;3045;43.226;27.858;2023-12-29T05:06:45;97047.31;;;3.84;100.00
6034;BME280;3045;43.226;27.858;2023-12-29T05:09:12;95750.91;;;3.96;100.00
6034;BME280;3045;43.226;27.858;2023-12-29T05:11:39;87706.09;;;3.29;100.00
6034;BME280;3045;43.226;27.858;2023-12-29T05:14:06;87132.16;;;3.74;100.00
6034;BME280;3045;43.226;27.858;2023-12-29T05:16:35;88861.53;;;3.73;100.00
6034;BME280;3045;43.226;27.858;2023-12-29T05:19:02;89487.00;;;3.77;100.00
6034;BME280;3045;43.226;27.858;2023-12-29T05:21:29;89789.28;;;3.79;100.00
6034;BME280;3045;43.226;27.858;2023-12-29T05:23:56;88505.91;;;3.92;100.00
6034;BME280;3045;43.226;27.858;2023-12-29T05:26:23;88884.50;;;3.98;100.00
6034;BME280;3045;43.226;27.858;2023-12-29T05:28:50;88983.19;;;4.04;100.00
6034;BME280;3045;43.226;27.858;2023-12-29T05:31:17;91164.25;;;4.10;100.00
6034;BME280;3045;43.226;27.858;2023-12-29T05:33:46;91914.31;;;4.14;100.00
6034;BME280;3045;43.226;27.858;2023-12-29T05:36:13;90462.44;;;3.90;100.00
6034;BME280;3045;43.226;27.858;2023-12-29T05:38:40;87288.91;;;4.16;100.00
6034;BME280;3045;43.226;27.858;2023-12-29T05:41:07;85228.44;;;4.30;100.00
6034;BME280;3045;43.226;27.858;2023-12-29T05:43:35;83434.91;;;4.25;100.00
6034;BME280;3045;43.226;27.858;2023-12-29T05:46:03;90357.13;;;4.42;100.00
6034;BME280;3045;43.226;27.858;2023-12-29T05:48:35;94540.06;;;4.43;100.00
6034;BME280;3045;43.226;27.858;2023-12-29T05:51:07;92863.53;;;4.53;100.00
6034;BME280;3045;43.226;27.858;2023-12-29T05:53:35;96002.28;;;4.54;100.00
6034;BME280;3045;43.226;27.858;2023-12-29T05:56:03;96275.75;;;4.42;100.00
6034;BME280;3045;43.226;27.858;2023-12-29T05:58:30;98425.41;;;4.38;100.00
6034;BME280;3045;43.226;27.858;2023-12-29T06:00:58;99181.22;;;4.36;100.00
6034;BME280;3045;43.226;27.858;2023-12-29T06:03:26;97597.28;;;4.55;100.00
6034;BME280;3045;43.226;27.858;2023-12-29T06:05:53;94376.50;;;4.77;100.00
6034;BME280;3045;43.226;27.858;2023-12-29T06:08:22;95183.69;;;5.03;100.00
6034;BME280;3045;43.226;27.858;2023-12-29T06:10:49;102310.34;;;5.16;100.00
6034;BME280;3045;43.226;27.858;2023-12-29T06:13:16;108684.25;;;5.28;100.00
6034;BME280;3045;43.226;27.858;2023-12-29T06:15:43;114570.38;;;5.23;100.00
6034;BME280;3045;43.226;27.858;2023-12-29T06:18:11;124556.19;;;5.88;100.00
6034;BME280;3045;43.226;27.858;2023-12-29T06:20:38;139966.66;;;6.26;100.00
6034;BME280;3045;43.226;27.858;2023-12-29T06:23:05;147020.19;;;6.91;100.00
6034;BME280;3045;43.226;27.858;2023-12-29T06:25:33;147934.44;;;7.51;100.00
6034;BME280;3045;43.226;27.858;2023-12-29T06:28:00;148137.56;;;8.33;100.00
6034;BME280;3045;43.226;27.858;2023-12-29T06:30:29;148283.94;;;8.91;100.00
6034;BME280;3045;43.226;27.858;2023-12-29T06:32:56;148438.00;;;9.53;100.00
6034;BME280;3045;43.226;27.858;2023-12-29T06:35:23;148497.34;;;9.77;100.00
6034;BME280;3045;43.226;27.858;2023-12-29T06:37:50;148459.47;;;9.61;100.00
6034;BME280;3045;43.226;27.858;2023-12-29T06:40:17;148588.34;;;10.13;100.00
6034;BME280;3045;43.226;27.858;2023-12-29T06:42:46;148650.31;;;10.38;100.00
6034;BME280;3045;43.226;27.858;2023-12-29T06:45:13;148765.31;;;10.84;100.00
6034;BME280;3045;43.226;27.858;2023-12-29T06:47:40;148847.50;;;11.17;100.00
6034;BME280;3045;43.226;27.858;2023-12-29T06:50:08;148912.00;;;11.42;100.00
6034;BME280;3045;43.226;27.858;2023-12-29T06:52:38;148929.75;;;11.50;100.00
6034;BME280;3045;43.226;27.858;2023-12-29T06:55:06;149048.69;;;11.97;100.00
6034;BME280;3045;43.226;27.858;2023-12-29T06:57:33;149176.53;;;12.48;100.00
6034;BME280;3045;43.226;27.858;2023-12-29T07:00:02;149314.53;;;13.03;100.00
6034;BME280;3045;43.226;27.858;2023-12-29T07:02:30;149414.69;;;13.43;100.00
6034;BME280;3045;43.226;27.858;2023-12-29T07:04:57;149481.84;;;13.70;100.00
6034;BME280;3045;43.226;27.858;2023-12-29T07:07:24;149616.19;;;14.24;100.00
6034;BME280;3045;43.226;27.858;2023-12-29T07:09:51;149711.31;;;14.61;100.00
6034;BME280;3045;43.226;27.858;2023-12-29T07:12:19;149702.44;;;14.58;100.00
6034;BME280;3045;43.226;27.858;2023-12-29T07:14:46;149836.88;;;15.12;97.60
6034;BME280;3045;43.226;27.858;2023-12-29T07:17:14;149803.88;;;14.98;95.96
6034;BME280;3045;43.226;27.858;2023-12-29T07:19:41;149734.16;;;14.71;97.16
6034;BME280;3045;43.226;27.858;2023-12-29T07:22:08;149750.63;;;14.77;100.00
6034;BME280;3045;43.226;27.858;2023-12-29T07:24:36;149860.97;;;15.21;95.37
6034;BME280;3045;43.226;27.858;2023-12-29T07:27:03;149890.16;;;15.33;90.92
6034;BME280;3045;43.226;27.858;2023-12-29T07:29:31;149760.75;;;14.81;93.89
6034;BME280;3045;43.226;27.858;2023-12-29T07:31:58;149750.63;;;14.77;98.76
6034;BME280;3045;43.226;27.858;2023-12-29T07:34:27;149858.44;;;15.20;97.91
6034;BME280;3045;43.226;27.858;2023-12-29T07:36:56;149778.53;;;14.88;99.43
6034;BME280;3045;43.226;27.858;2023-12-29T07:39:24;149737.97;;;14.72;100.00
6034;BME280;3045;43.226;27.858;2023-12-29T07:41:51;149921.88;;;15.45;92.34
6034;BME280;3045;43.226;27.858;2023-12-29T07:44:19;149946.03;;;15.55;90.46
6034;BME280;3045;43.226;27.858;2023-12-29T07:46:46;149989.19;;;15.72;88.82
6034;BME280;3045;43.226;27.858;2023-12-29T07:49:13;150145.31;;;16.34;85.57
6034;BME280;3045;43.226;27.858;2023-12-29T07:51:42;150205.06;;;16.58;80.53
6034;BME280;3045;43.226;27.858;2023-12-29T07:54:09;150609.19;;;18.19;71.70
6034;BME280;3045;43.226;27.858;2023-12-29T07:56:36;150831.78;;;19.07;63.17
6034;BME280;3045;43.226;27.858;2023-12-29T07:59:04;150827.97;;;19.06;62.38
6034;BME280;3045;43.226;27.858;2023-12-29T08:01:33;150875.06;;;19.25;61.38
6034;BME280;3045;43.226;27.858;2023-12-29T08:04:02;150951.47;;;19.55;58.58
6034;BME280;3045;43.226;27.858;2023-12-29T08:06:29;151090.22;;;20.10;56.75
6034;BME280;3045;43.226;27.858;2023-12-29T08:08:57;151212.47;;;20.59;54.34
6034;BME280;3045;43.226;27.858;2023-12-29T08:11:24;151315.69;;;21.00;52.67
6034;BME280;3045;43.226;27.858;2023-12-29T08:13:51;151226.50;;;20.64;54.08
6034;BME280;3045;43.226;27.858;2023-12-29T08:16:18;151187.03;;;20.48;55.30
6034;BME280;3045;43.226;27.858;2023-12-29T08:18:46;151436.75;;;21.48;52.90
6034;BME280;3045;43.226;27.858;2023-12-29T08:21:17;151563.03;;;21.98;50.66
6034;BME280;3045;43.226;27.858;2023-12-29T08:23:45;151575.75;;;22.03;51.34
6034;BME280;3045;43.226;27.858;2023-12-29T08:26:14;151424.03;;;21.42;53.37
6034;BME280;3045;43.226;27.858;2023-12-29T08:28:41;151501.75;;;21.73;52.64
6034;BME280;3045;43.226;27.858;2023-12-29T08:31:11;151675.19;;;22.42;51.18
6034;BME280;3045;43.226;27.858;2023-12-29T08:33:38;151842.38;;;23.08;49.96
6034;BME280;3045;43.226;27.858;2023-12-29T08:36:06;151875.50;;;23.21;48.76
6034;BME280;3045;43.226;27.858;2023-12-29T08:38:33;151949.56;;;23.51;47.61
6034;BME280;3045;43.226;27.858;2023-12-29T08:41:00;152056.75;;;23.93;47.56
6034;BME280;3045;43.226;27.858;2023-12-29T08:43:29;151936.84;;;23.46;48.44
6034;BME280;3045;43.226;27.858;2023-12-29T08:45:56;151804.06;;;22.93;48.79
6034;BME280;3045;43.226;27.858;2023-12-29T08:48:23;151888.28;;;23.27;49.53
6034;BME280;3045;43.226;27.858;2023-12-29T08:50:51;152125.78;;;24.21;46.27
6034;BME280;3045;43.226;27.858;2023-12-29T08:53:18;152171.75;;;24.39;45.08
6034;BME280;3045;43.226;27.858;2023-12-29T08:55:45;152488.63;;;25.64;42.86
6034;BME280;3045;43.226;27.858;2023-12-29T08:58:12;152302.09;;;24.90;43.71
6034;BME280;3045;43.226;27.858;2023-12-29T09:00:40;152162.81;;;24.35;44.69
6034;BME280;3045;43.226;27.858;2023-12-29T09:03:08;152022.34;;;23.80;46.41
6034;BME280;3045;43.226;27.858;2023-12-29T09:05:35;152197.25;;;24.49;45.27
6034;BME280;3045;43.226;27.858;2023-12-29T09:08:02;152033.84;;;23.84;46.09
6034;BME280;3045;43.226;27.858;2023-12-29T09:10:30;152097.66;;;24.09;46.26
6034;BME280;3045;43.226;27.858;2023-12-29T09:12:57;152630.56;;;26.20;43.71
6034;BME280;3045;43.226;27.858;2023-12-29T09:15:24;152963.22;;;27.52;40.65
6034;BME280;3045;43.226;27.858;2023-12-29T09:17:53;153202.59;;;28.46;38.20
6034;BME280;3045;43.226;27.858;2023-12-29T09:20:20;153530.56;;;29.76;36.94
6034;BME280;3045;43.226;27.858;2023-12-29T09:22:47;153566.50;;;29.90;35.69
6034;BME280;3045;43.226;27.858;2023-12-29T09:25:14;153205.19;;;28.47;37.38
6034;BME280;3045;43.226;27.858;2023-12-29T09:27:41;153352.47;;;29.05;36.49
6034;BME280;3045;43.226;27.858;2023-12-29T09:30:10;153331.97;;;28.97;36.29
6034;BME280;3045;43.226;27.858;2023-12-29T09:32:37;153417.84;;;29.31;35.97
6034;BME280;3045;43.226;27.858;2023-12-29T09:35:06;153476.75;;;29.55;35.33
6034;BME280;3045;43.226;27.858;2023-12-29T09:37:33;153506.25;;;29.66;34.92
6034;BME280;3045;43.226;27.858;2023-12-29T09:40:00;153504.94;;;29.66;34.67
6034;BME280;3045;43.226;27.858;2023-12-29T09:42:29;153657.44;;;30.26;34.13
6034;BME280;3045;43.226;27.858;2023-12-29T09:44:56;153738.28;;;30.58;33.85
6034;BME280;3045;43.226;27.858;2023-12-29T09:47:24;153833.13;;;30.95;32.96
6034;BME280;3045;43.226;27.858;2023-12-29T09:49:52;153658.72;;;30.26;33.79
6034;BME280;3045;43.226;27.858;2023-12-29T09:52:22;153216.66;;;28.52;35.63
6034;BME280;3045;43.226;27.858;2023-12-29T09:54:51;152915.78;;;27.33;37.22
6034;BME280;3045;43.226;27.858;2023-12-29T09:57:19;152959.34;;;27.50;37.16
6034;BME280;3045;43.226;27.858;2023-12-29T09:59:48;152793.03;;;26.85;38.00
6034;BME280;3045;43.226;27.858;2023-12-29T10:02:17;152672.75;;;26.37;38.55
6034;BME280;3045;43.226;27.858;2023-12-29T10:04:44;152805.81;;;26.90;38.18
6034;BME280;3045;43.226;27.858;2023-12-29T10:07:17;152603.66;;;26.10;38.98
6034;BME280;3045;43.226;27.858;2023-12-29T10:09:48;152602.44;;;26.09;38.75
6034;BME280;3045;43.226;27.858;2023-12-29T10:12:17;152518.03;;;25.76;40.26
6034;BME280;3045;43.226;27.858;2023-12-29T10:14:49;152560.25;;;25.92;39.73
6034;BME280;3045;43.226;27.858;2023-12-29T10:17:27;152657.41;;;26.31;39.24
6034;BME280;3045;43.226;27.858;2023-12-29T10:20:03;152581.97;;;26.01;39.96
6034;BME280;3045;43.226;27.858;2023-12-29T10:22:43;152790.41;;;26.83;39.17
6034;BME280;3045;43.226;27.858;2023-12-29T10:25:16;152675.34;;;26.38;39.91
6034;BME280;3045;43.226;27.858;2023-12-29T10:27:43;152707.28;;;26.51;40.31
6034;BME280;3045;43.226;27.858;2023-12-29T10:30:12;152651.03;;;26.28;39.73
6034;BME280;3045;43.226;27.858;2023-12-29T10:32:39;152973.44;;;27.56;38.04
6034;BME280;3045;43.226;27.858;2023-12-29T10:35:09;152713.66;;;26.53;39.46
6034;BME280;3045;43.226;27.858;2023-12-29T10:37:37;152746.94;;;26.66;39.37
6034;BME280;3045;43.226;27.858;2023-12-29T10:40:05;152775.09;;;26.77;38.95
6034;BME280;3045;43.226;27.858;2023-12-29T10:42:34;152974.72;;;27.56;37.96
6034;BME280;3045;43.226;27.858;2023-12-29T10:45:05;153050.22;;;27.86;37.71
6034;BME280;3045;43.226;27.858;2023-12-29T10:47:33;153107.84;;;28.09;37.29
6034;BME280;3045;43.226;27.858;2023-12-29T10:50:02;152853.13;;;27.08;36.95
6034;BME280;3045;43.226;27.858;2023-12-29T10:52:31;152619.03;;;26.16;38.17
6034;BME280;3045;43.226;27.858;2023-12-29T10:55:06;152781.47;;;26.80;37.64
6034;BME280;3045;43.226;27.858;2023-12-29T10:57:35;152795.59;;;26.86;37.53
6034;BME280;3045;43.226;27.858;2023-12-29T11:00:02;152848.03;;;27.06;37.21
6034;BME280;3045;43.226;27.858;2023-12-29T11:02:31;152799.41;;;26.87;37.53
6034;BME280;3045;43.226;27.858;2023-12-29T11:05:06;152800.69;;;26.88;37.70
6034;BME280;3045;43.226;27.858;2023-12-29T11:07:37;152745.63;;;26.66;37.38
6034;BME280;3045;43.226;27.858;2023-12-29T11:10:05;152803.25;;;26.89;37.66
6034;BME280;3045;43.226;27.858;2023-12-29T11:12:36;152796.88;;;26.86;37.44
6034;BME280;3045;43.226;27.858;2023-12-29T11:15:04;152808.34;;;26.91;37.31
6034;BME280;3045;43.226;27.858;2023-12-29T11:17:33;152642.09;;;26.25;38.37
6034;BME280;3045;43.226;27.858;2023-12-29T11:20:01;152295.66;;;24.88;39.68
6034;BME280;3045;43.226;27.858;2023-12-29T11:22:30;152312.28;;;24.94;40.28
6034;BME280;3045;43.226;27.858;2023-12-29T11:24:57;152488.63;;;25.64;39.74
6034;BME280;3045;43.226;27.858;2023-12-29T11:27:29;152270.09;;;24.78;39.84
6034;BME280;3045;43.226;27.858;2023-12-29T11:30:00;152143.63;;;24.28;41.12
6034;BME280;3045;43.226;27.858;2023-12-29T11:32:38;152281.59;;;24.82;40.86
6034;BME280;3045;43.226;27.858;2023-12-29T11:35:15;152376.16;;;25.20;40.43
6034;BME280;3045;43.226;27.858;2023-12-29T11:38:08;151917.59;;;23.38;42.26
6034;BME280;3045;43.226;27.858;2023-12-29T11:40:41;151702.00;;;22.53;44.06
6034;BME280;3045;43.226;27.858;2023-12-29T11:43:13;151441.88;;;21.50;46.29
6034;BME280;3045;43.226;27.858;2023-12-29T11:45:43;151215.03;;;20.60;49.58
6034;BME280;3045;43.226;27.858;2023-12-29T11:48:10;151138.63;;;20.29;51.15
6034;BME280;3045;43.226;27.858;2023-12-29T11:50:39;150968.00;;;19.61;54.04
6034;BME280;3045;43.226;27.858;2023-12-29T11:53:07;150839.41;;;19.10;57.24
6034;BME280;3045;43.226;27.858;2023-12-29T11:55:35;150764.34;;;18.81;59.08
6034;BME280;3045;43.226;27.858;2023-12-29T11:58:03;150705.88;;;18.57;61.59
6034;BME280;3045;43.226;27.858;2023-12-29T12:00:45;150694.44;;;18.53;63.29
6034;BME280;3045;43.226;27.858;2023-12-29T12:03:24;150665.16;;;18.41;64.91
6034;BME280;3045;43.226;27.858;2023-12-29T12:05:53;150624.41;;;18.25;65.81
6034;BME280;3045;43.226;27.858;2023-12-29T12:08:31;150609.19;;;18.19;68.31
6034;BME280;3045;43.226;27.858;2023-12-29T12:14:01;150588.84;;;18.11;69.42
6034;BME280;3045;43.226;27.858;2023-12-29T12:16:53;150586.28;;;18.10;69.45
6034;BME280;3045;43.226;27.858;2023-12-29T12:19:21;150579.94;;;18.07;71.77
6034;BME280;3045;43.226;27.858;2023-12-29T12:21:53;150554.50;;;17.97;70.89
6034;BME280;3045;43.226;27.858;2023-12-29T12:24:20;150549.41;;;17.95;72.28
6034;BME280;3045;43.226;27.858;2023-12-29T12:26:47;150565.97;;;18.02;71.92
6034;BME280;3045;43.226;27.858;2023-12-29T12:29:16;150573.56;;;18.05;71.45
6034;BME280;3045;43.226;27.858;2023-12-29T12:32:01;150551.97;;;17.96;71.10
6034;BME280;3045;43.226;27.858;2023-12-29T12:34:36;150574.84;;;18.05;72.34
6034;BME280;3045;43.226;27.858;2023-12-29T12:37:04;150558.34;;;17.99;72.86
6034;BME280;3045;43.226;27.858;2023-12-29T12:39:38;150532.91;;;17.89;71.63
6034;BME280;3045;43.226;27.858;2023-12-29T12:42:06;150525.28;;;17.86;71.82
6034;BME280;3045;43.226;27.858;2023-12-29T12:44:33;150525.28;;;17.86;73.57
6034;BME280;3045;43.226;27.858;2023-12-29T12:47:06;150535.47;;;17.90;74.32
6034;BME280;3045;43.226;27.858;2023-12-29T12:49:34;150503.69;;;17.77;73.17
6034;BME280;3045;43.226;27.858;2023-12-29T12:52:01;150515.13;;;17.82;73.47
6034;BME280;3045;43.226;27.858;2023-12-29T12:54:29;150507.47;;;17.78;72.12
6034;BME280;3045;43.226;27.858;2023-12-29T12:56:56;150534.19;;;17.89;72.65
6034;BME280;3045;43.226;27.858;2023-12-29T12:59:23;150522.72;;;17.85;71.98
6034;BME280;3045;43.226;27.858;2023-12-29T13:01:50;150510.00;;;17.79;71.73
6034;BME280;3045;43.226;27.858;2023-12-29T13:04:19;150507.47;;;17.78;71.19
6034;BME280;3045;43.226;27.858;2023-12-29T13:06:46;150529.06;;;17.87;71.17
6034;BME280;3045;43.226;27.858;2023-12-29T13:09:13;150525.28;;;17.86;71.52
6034;BME280;3045;43.226;27.858;2023-12-29T13:11:44;150512.56;;;17.80;68.45